createdAt,value
2022-08-25T00:01:53.418Z,100733.25
2022-08-25T00:07:02.099Z,100743.75
2022-08-25T00:12:09.096Z,100743.03
2022-08-25T00:17:11.849Z,100741.41
2022-08-25T00:22:14.713Z,100753.56
2022-08-25T00:27:18.391Z,100740.78
2022-08-25T00:32:21.256Z,100742.81
2022-08-25T00:37:24.397Z,100743.84
2022-08-25T00:42:27.280Z,100739.56
2022-08-25T00:47:31.742Z,100743.09
2022-08-25T00:52:46.008Z,100706.13
2022-08-25T00:58:14.617Z,100707.94
2022-08-25T01:03:19.630Z,100734.97
2022-08-25T01:08:29.105Z,100734.28
2022-08-25T01:13:37.085Z,100727.66
2022-08-25T01:18:59.685Z,100732.16
2022-08-25T01:24:02.581Z,100729.75
2022-08-25T01:29:23.070Z,100729.03
2022-08-25T01:34:28.605Z,100717.91
2022-08-25T01:39:31.895Z,100718.06
2022-08-25T01:44:37.127Z,100719.81
2022-08-25T01:49:39.941Z,100710.44
2022-08-25T01:54:43.031Z,100689.81
2022-08-25T01:59:46.372Z,100702.03
2022-08-25T02:04:50.708Z,100692.63
2022-08-25T02:09:53.600Z,100702.19
2022-08-25T02:14:56.471Z,100696.25
2022-08-25T02:19:59.811Z,100680.84
2022-08-25T02:25:02.825Z,100676.66
2022-08-25T02:30:06.374Z,100669.03
2022-08-25T02:35:09.842Z,100657.06
2022-08-25T02:40:13.079Z,100657.13
2022-08-25T02:45:17.434Z,100656.31
2022-08-25T02:50:21.022Z,100653.75
2022-08-25T02:55:24.285Z,100646.88
2022-08-25T03:00:27.011Z,100645.13
2022-08-25T03:05:29.811Z,100648.56
2022-08-25T03:10:33.557Z,100645.97
2022-08-25T03:15:38.211Z,100640.81
2022-08-25T03:20:41.921Z,100639.06
2022-08-25T03:26:03.758Z,100602.06
2022-08-25T03:31:06.840Z,100634.72
2022-08-25T03:36:12.430Z,100620.94
2022-08-25T03:41:28.096Z,100631.22
2022-08-25T03:46:39.210Z,100625.13
2022-08-25T03:51:44.710Z,100590.63
2022-08-25T03:56:47.233Z,100616.31
2022-08-25T04:01:54.840Z,100601.53
2022-08-25T04:06:59.090Z,100583.28
2022-08-25T04:12:01.892Z,100577.06
2022-08-25T04:17:05.230Z,100573.38
2022-08-25T04:22:08.016Z,100568.00
2022-08-25T04:27:10.776Z,100568.41
2022-08-25T04:32:14.395Z,100555.22
2022-08-25T04:37:17.382Z,100556.81
2022-08-25T04:42:20.789Z,100545.19
2022-08-25T04:47:23.636Z,100544.97
2022-08-25T04:52:26.413Z,100544.84
2022-08-25T04:57:29.263Z,100533.97
2022-08-25T05:02:33.574Z,100538.47
2022-08-25T05:07:36.465Z,100527.31
2022-08-25T05:12:39.260Z,100532.88
2022-08-25T05:17:43.550Z,100528.13
2022-08-25T05:22:47.037Z,100528.22
2022-08-25T05:27:50.279Z,100518.75
2022-08-25T05:32:53.113Z,100524.25
2022-08-25T05:37:57.736Z,100506.34
2022-08-25T05:43:00.546Z,100500.88
2022-08-25T05:48:03.661Z,100496.72
2022-08-25T05:53:06.696Z,100493.81
2022-08-25T05:58:10.177Z,100491.16
2022-08-25T06:03:16.883Z,100480.47
2022-08-25T06:08:20.350Z,100477.72
2022-08-25T06:13:28.744Z,100465.31
2022-08-25T06:18:31.822Z,100459.28
2022-08-25T06:23:34.564Z,100461.94
2022-08-25T06:28:37.326Z,100450.00
2022-08-25T06:33:40.078Z,100437.97
2022-08-25T06:38:43.058Z,100423.94
2022-08-25T06:43:49.799Z,100436.78
2022-08-25T06:48:55.049Z,100435.66
2022-08-25T06:53:57.943Z,100431.91
2022-08-25T06:59:02.592Z,100428.19
2022-08-25T07:04:10.297Z,100431.66
2022-08-25T07:09:15.619Z,100419.19
2022-08-25T07:14:19.349Z,100410.66
2022-08-25T07:19:22.382Z,100403.44
2022-08-25T07:24:25.223Z,100394.13
2022-08-25T07:29:32.762Z,100391.41
2022-08-25T07:34:54.251Z,100367.03
2022-08-25T07:39:57.484Z,100370.88
2022-08-25T07:45:00.445Z,100361.97
2022-08-25T07:50:03.789Z,100353.69
2022-08-25T07:55:11.070Z,100348.44
2022-08-25T08:00:15.859Z,100336.28
2022-08-25T08:05:18.654Z,100331.69
2022-08-25T08:15:45.173Z,100327.34
2022-08-25T08:20:49.001Z,100311.88
2022-08-25T08:25:51.900Z,100306.66
2022-08-25T08:30:54.785Z,100307.28
2022-08-25T08:36:08.284Z,100292.81
2022-08-25T08:42:11.123Z,100294.84
2022-08-25T08:47:36.583Z,100281.22
2022-08-25T08:53:03.518Z,100289.28
2022-08-25T08:58:16.370Z,100280.59
2022-08-25T09:03:32.442Z,100273.31
2022-08-25T09:08:35.714Z,100282.94
2022-08-25T09:13:58.919Z,100266.44
2022-08-25T09:19:23.474Z,100262.22
2022-08-25T09:24:37.898Z,100268.19
2022-08-25T09:30:07.569Z,100259.38
2022-08-25T09:35:29.564Z,100261.34
2022-08-25T09:40:35.913Z,100251.66
2022-08-25T09:45:42.490Z,100270.16
2022-08-25T09:50:46.884Z,100288.25
2022-08-25T09:56:05.025Z,100280.63
2022-08-25T10:01:20.856Z,100261.63
2022-08-25T10:06:27.392Z,100262.84
2022-08-25T10:11:38.656Z,100260.47
2022-08-25T10:16:41.614Z,100249.22
2022-08-25T10:22:23.805Z,100253.66
2022-08-25T10:27:53.101Z,100245.84
2022-08-25T10:33:25.372Z,100241.59
2022-08-25T10:38:43.288Z,100240.56
2022-08-25T10:43:52.267Z,100227.56
2022-08-25T10:49:17.005Z,100230.56
2022-08-25T10:54:28.690Z,100232.06
2022-08-25T10:59:47.058Z,100231.50
2022-08-25T11:04:57.964Z,100213.50
2022-08-25T11:10:07.586Z,100209.31
2022-08-25T11:15:13.998Z,100203.59
2022-08-25T11:20:26.986Z,100195.56
2022-08-25T11:25:41.578Z,100186.56
2022-08-25T11:30:44.895Z,100163.44
2022-08-25T11:35:53.626Z,100160.66
2022-08-25T11:41:35.493Z,100147.31
2022-08-25T11:47:01.797Z,100141.72
2022-08-25T11:52:34.847Z,100146.78
2022-08-25T11:57:38.392Z,100152.72
2022-08-25T12:02:50.852Z,100157.19
2022-08-25T12:08:12.125Z,100165.78
2022-08-25T12:13:28.618Z,100159.41
2022-08-25T12:18:31.415Z,100170.03
2022-08-25T12:23:51.589Z,100160.13
2022-08-25T12:28:59.337Z,100164.63
2022-08-25T12:35:08.404Z,100152.28
2022-08-25T12:40:27.545Z,100141.63
2022-08-25T12:45:39.849Z,100133.53
2022-08-25T12:50:48.067Z,100116.19
2022-08-25T12:55:54.944Z,100114.94
2022-08-25T13:01:32.791Z,100107.66
2022-08-25T13:07:17.537Z,100098.53
2022-08-25T13:12:27.623Z,100097.13
2022-08-25T13:17:35.478Z,100096.66
2022-08-25T13:22:38.223Z,100086.56
2022-08-25T13:27:41.253Z,100092.09
2022-08-25T13:32:46.931Z,100062.22
2022-08-25T13:37:50.792Z,100097.97
2022-08-25T13:43:05.984Z,100112.59
2022-08-25T13:48:22.599Z,100103.31
2022-08-25T13:53:30.338Z,100098.84
2022-08-25T13:58:45.419Z,100088.50
2022-08-25T14:03:49.225Z,100090.53
2022-08-25T14:09:01.484Z,100089.88
2022-08-25T14:14:10.051Z,100142.28
2022-08-25T14:19:20.319Z,100143.56
2022-08-25T14:24:24.402Z,100165.94
2022-08-25T14:29:27.195Z,100205.97
2022-08-25T14:34:33.511Z,100201.59
2022-08-25T14:39:36.294Z,100185.19
2022-08-25T14:44:39.335Z,100200.19
2022-08-25T14:49:46.194Z,100184.78
2022-08-25T14:54:51.244Z,100179.66
2022-08-25T14:59:54.038Z,100188.25
2022-08-25T15:05:00.056Z,100190.84
2022-08-25T15:10:06.493Z,100177.91
2022-08-25T15:15:10.564Z,100183.06
2022-08-25T15:20:15.896Z,100177.03
2022-08-25T15:25:20.109Z,100175.22
2022-08-25T15:30:22.861Z,100168.31
2022-08-25T15:35:34.999Z,100169.13
2022-08-25T15:40:39.447Z,100157.06
2022-08-25T15:45:42.451Z,100171.59
2022-08-25T15:50:45.349Z,100170.72
2022-08-25T15:55:48.141Z,100184.47
2022-08-25T16:00:56.551Z,100175.88
2022-08-25T16:05:59.629Z,100183.63
2022-08-25T16:11:02.841Z,100183.59
2022-08-25T16:16:05.945Z,100184.44
2022-08-25T16:21:13.910Z,100188.72
2022-08-25T16:26:17.042Z,100186.16
2022-08-25T16:31:20.967Z,100180.13
2022-08-25T16:36:25.298Z,100174.97
2022-08-25T16:41:34.555Z,100165.47
2022-08-25T16:46:40.839Z,100174.03
2022-08-25T16:51:44.027Z,100168.91
2022-08-25T16:56:46.854Z,100165.44
2022-08-25T17:01:54.052Z,100163.69
2022-08-25T17:06:56.895Z,100171.50
2022-08-25T17:11:59.932Z,100162.97
2022-08-25T17:17:03.162Z,100151.84
2022-08-25T17:22:09.968Z,100161.34
2022-08-25T17:27:14.543Z,100157.16
2022-08-25T17:32:19.939Z,100162.31
2022-08-25T17:37:23.015Z,100152.88
2022-08-25T17:42:25.751Z,100145.97
2022-08-25T17:47:33.520Z,100138.22
2022-08-25T17:52:36.262Z,100133.06
2022-08-25T17:57:39.068Z,100129.59
2022-08-25T18:02:43.348Z,100136.47
2022-08-25T18:07:46.655Z,100140.78
2022-08-25T18:12:50.505Z,100145.97
2022-08-25T18:17:54.004Z,100137.38
2022-08-25T18:23:00.392Z,100127.09
2022-08-25T18:28:03.641Z,100127.09
2022-08-25T18:33:06.681Z,100132.28
2022-08-25T18:38:28.043Z,100132.38
2022-08-25T18:43:33.995Z,100132.38
2022-08-25T18:48:37.643Z,100127.25
2022-08-25T18:53:50.136Z,100130.66
2022-08-25T18:58:53.534Z,100117.75
2022-08-25T19:03:57.041Z,100104.84
2022-08-25T19:08:59.763Z,100116.00
2022-08-25T19:14:02.578Z,100116.81
2022-08-25T19:19:06.927Z,100119.38
2022-08-25T19:24:10.980Z,100110.78
2022-08-25T19:29:17.610Z,100084.19
2022-08-25T19:34:28.294Z,100091.91
2022-08-25T19:39:35.234Z,100091.06
2022-08-25T19:44:42.452Z,100099.66
2022-08-25T19:49:45.458Z,100109.13
2022-08-25T19:54:50.068Z,100117.72
2022-08-25T19:59:54.785Z,100117.69
2022-08-25T20:04:59.955Z,100111.59
2022-08-25T20:10:04.212Z,100103.81
2022-08-25T20:15:08.456Z,100091.75
2022-08-25T20:20:14.638Z,100086.59
2022-08-25T20:25:20.549Z,100096.06
2022-08-25T20:30:24.444Z,100108.09
2022-08-25T20:35:28.614Z,100108.09
2022-08-25T20:40:31.746Z,100110.66
2022-08-25T20:45:34.827Z,100085.78
2022-08-25T20:50:40.596Z,100099.56
2022-08-25T20:55:43.812Z,100096.22
2022-08-25T21:00:46.948Z,100100.53
2022-08-25T21:05:53.955Z,100087.66
2022-08-25T21:10:57.166Z,100081.56
2022-08-25T21:16:05.714Z,100090.16
2022-08-25T21:21:15.586Z,100094.50
2022-08-25T21:26:22.008Z,100094.53
2022-08-25T21:31:24.965Z,100083.44
2022-08-25T21:36:31.530Z,100088.53
2022-08-25T21:41:35.427Z,100081.66
2022-08-25T21:46:40.039Z,100087.69
2022-08-25T21:51:44.914Z,100091.13
2022-08-25T21:56:53.537Z,100086.84
2022-08-25T22:02:01.043Z,100095.44
2022-08-25T22:07:04.022Z,100092.00
2022-08-25T22:12:07.048Z,100089.44
2022-08-25T22:17:16.584Z,100104.94
2022-08-25T22:22:21.008Z,100086.00
2022-08-25T22:27:23.979Z,100092.91
2022-08-25T22:32:26.729Z,100101.50
2022-08-25T22:37:30.412Z,100111.84
2022-08-25T22:42:33.439Z,100108.38
2022-08-25T22:47:36.216Z,100109.22
2022-08-25T22:52:42.409Z,100117.78
2022-08-25T22:57:45.458Z,100111.81
2022-08-25T23:02:53.571Z,100120.34
2022-08-25T23:07:56.398Z,100116.88
2022-08-25T23:12:59.347Z,100111.75
2022-08-25T23:18:02.251Z,100111.75
2022-08-25T23:23:05.150Z,100105.75
2022-08-25T23:28:10.692Z,100110.94
2022-08-25T23:33:18.878Z,100106.66
2022-08-25T23:38:23.620Z,100110.97
2022-08-25T23:43:26.497Z,100108.34
2022-08-25T23:48:30.162Z,100112.63
2022-08-25T23:53:33.976Z,100117.78
2022-08-25T23:58:36.800Z,100122.97
